Time;durP1;ratioP1;P1;durP2;ratioP2;P2;SDS_P1;SDS_P2;PMS_P1;PMS_P2;Temp;Humidity;BMP_temperature;BMP_pressure;BME280_temperature;BME280_humidity;BME280_pressure;Samples;Min_cycle;Max_cycle;Signal;HPM_P1;HPM_P2
2022/09/05 00:02:53;;;;;;;6.65;2.20;;;18.90;99.90;;;;;;4991185;28;20026;-67
2022/09/05 00:09:07;;;;;;;9.27;2.58;;;19.10;99.90;;;;;;4986248;28;20129;-67
2022/09/05 00:11:59;;;;;;;18.92;4.00;;;18.70;99.90;;;;;;4989844;28;20466;-67
2022/09/05 00:14:49;;;;;;;9.00;2.88;;;18.40;99.90;;;;;;4990720;28;20022;-75
2022/09/05 00:17:43;;;;;;;12.52;3.35;;;18.20;99.90;;;;;;4988137;28;20131;-70
2022/09/05 00:20:17;;;;;;;12.18;3.50;;;18.00;99.90;;;;;;4989951;28;20521;-64
2022/09/05 00:23:01;;;;;;;11.05;3.63;;;17.90;99.90;;;;;;4992311;28;20038;-66
2022/09/05 00:25:44;;;;;;;11.30;3.22;;;17.90;99.90;;;;;;4985038;28;20035;-64
2022/09/05 00:28:39;;;;;;;15.85;4.15;;;17.80;99.90;;;;;;4979846;28;20034;-63
2022/09/05 00:31:05;;;;;;;10.20;3.38;;;17.80;99.90;;;;;;4970839;28;20049;-69
2022/09/05 00:33:43;;;;;;;21.50;4.45;;;17.80;99.90;;;;;;4990957;28;20026;-69
2022/09/05 00:36:09;;;;;;;18.10;5.05;;;17.90;99.90;;;;;;4990872;28;20474;-74
2022/09/05 00:38:39;;;;;;;20.58;3.83;;;18.00;99.90;;;;;;4992312;28;20101;-68
2022/09/05 00:41:09;;;;;;;17.52;4.40;;;18.00;99.90;;;;;;4991835;28;20129;-65
2022/09/05 00:43:43;;;;;;;16.95;4.70;;;18.00;99.90;;;;;;4991193;28;20042;-64
2022/09/05 00:46:37;;;;;;;15.30;4.65;;;17.90;99.90;;;;;;4986597;28;20065;-63
2022/09/05 00:49:26;;;;;;;16.13;4.68;;;17.90;99.90;;;;;;4986784;28;20081;-63
2022/09/05 00:52:24;;;;;;;17.83;4.50;;;17.80;99.90;;;;;;4990136;28;20048;-62
2022/09/05 00:55:05;;;;;;;20.38;4.18;;;17.80;99.90;;;;;;4969068;28;20566;-62
2022/09/05 00:58:07;;;;;;;22.40;4.95;;;17.80;99.90;;;;;;4990115;28;20026;-62
2022/09/05 01:00:53;;;;;;;11.95;4.20;;;17.80;99.90;;;;;;4984363;28;20474;-62
2022/09/05 01:03:34;;;;;;;24.15;4.60;;;17.70;99.90;;;;;;4987536;28;20026;-62
2022/09/05 01:06:19;;;;;;;21.15;5.57;;;17.70;99.90;;;;;;4991978;28;20120;-62
2022/09/05 01:09:14;;;;;;;16.67;4.28;;;17.70;99.90;;;;;;4991534;28;20018;-61
2022/09/05 01:11:52;;;;;;;23.85;5.30;;;17.70;99.90;;;;;;4987471;28;20045;-61
2022/09/05 01:14:51;;;;;;;20.35;4.68;;;17.70;99.90;;;;;;4989816;28;20105;-61
2022/09/05 01:17:30;;;;;;;13.98;4.15;;;17.70;99.90;;;;;;4989869;28;20031;-61
2022/09/05 01:20:30;;;;;;;18.42;4.55;;;17.70;99.90;;;;;;4991741;28;20111;-61
2022/09/05 01:23:15;;;;;;;15.25;4.00;;;17.70;99.90;;;;;;4981391;28;20030;-61
2022/09/05 01:26:02;;;;;;;12.73;4.53;;;17.60;99.90;;;;;;4991214;28;20030;-61
2022/09/05 01:28:37;;;;;;;13.30;4.00;;;17.60;99.90;;;;;;4983149;28;20117;-61
2022/09/05 01:31:25;;;;;;;26.75;4.53;;;17.50;99.90;;;;;;4979736;28;20049;-61
2022/09/05 01:34:18;;;;;;;16.00;4.47;;;17.50;99.90;;;;;;4991374;28;20041;-61
2022/09/05 01:36:43;;;;;;;17.00;4.45;;;17.40;99.90;;;;;;4984756;28;20031;-61
2022/09/05 01:39:19;;;;;;;19.77;4.30;;;17.50;99.90;;;;;;4989479;28;20069;-61
2022/09/05 01:42:18;;;;;;;26.30;5.05;;;17.60;99.90;;;;;;4990763;28;20054;-62
2022/09/05 01:44:55;;;;;;;28.58;5.45;;;17.60;99.90;;;;;;4984868;28;20129;-62
2022/09/05 01:47:24;;;;;;;26.83;5.18;;;17.50;99.90;;;;;;4984251;28;20382;-62
2022/09/05 01:50:16;;;;;;;28.60;5.05;;;17.50;99.90;;;;;;4991123;28;20034;-62
2022/09/05 01:53:24;;;;;;;25.47;5.60;;;17.50;99.90;;;;;;4987623;28;20053;-62
2022/09/05 01:56:17;;;;;;;16.83;4.78;;;17.50;99.90;;;;;;4986986;28;20081;-62
2022/09/05 01:59:01;;;;;;;17.60;4.85;;;17.50;99.90;;;;;;4984378;28;20031;-62
2022/09/05 02:01:33;;;;;;;25.77;5.70;;;17.40;99.90;;;;;;4988452;28;20092;-62
2022/09/05 02:04:16;;;;;;;14.18;5.63;;;17.30;99.90;;;;;;4990803;28;20109;-62
2022/09/05 02:07:04;;;;;;;22.25;4.80;;;17.30;99.90;;;;;;4989008;28;20022;-62
2022/09/05 02:09:39;;;;;;;13.80;4.65;;;17.30;99.90;;;;;;4984035;28;20030;-62
2022/09/05 02:12:41;;;;;;;15.43;5.15;;;17.20;99.90;;;;;;4990015;28;20054;-62
2022/09/05 02:15:17;;;;;;;22.20;4.65;;;17.10;99.90;;;;;;4947317;28;20054;-62
2022/09/05 02:17:50;;;;;;;21.25;5.65;;;17.10;99.90;;;;;;4933945;29;20105;-62
2022/09/05 02:20:27;;;;;;;19.23;5.25;;;17.10;99.90;;;;;;4946594;28;20047;-62
2022/09/05 02:23:09;;;;;;;21.83;5.85;;;17.00;99.90;;;;;;4949946;28;20491;-62
2022/09/05 02:25:57;;;;;;;17.15;4.70;;;17.00;99.90;;;;;;4942459;29;20031;-62
2022/09/05 02:28:23;;;;;;;18.70;6.03;;;17.00;99.90;;;;;;4947851;29;20035;-62
2022/09/05 02:30:58;;;;;;;18.45;5.50;;;17.00;99.90;;;;;;4933703;29;20546;-62
2022/09/05 02:33:24;;;;;;;19.83;5.13;;;17.00;99.90;;;;;;4942809;28;20118;-62
2022/09/05 02:36:03;;;;;;;20.00;5.03;;;17.00;99.90;;;;;;4949586;29;20118;-61
2022/09/05 02:38:31;;;;;;;13.57;3.92;;;17.00;99.90;;;;;;4947924;29;20061;-61
2022/09/05 02:41:04;;;;;;;13.80;5.05;;;16.90;99.90;;;;;;4949613;28;20042;-61
2022/09/05 02:43:43;;;;;;;15.38;4.75;;;16.80;99.90;;;;;;4941779;29;20043;-61
2022/09/05 02:46:23;;;;;;;16.90;4.55;;;16.80;99.90;;;;;;4946065;29;20480;-61
2022/09/05 02:48:53;;;;;;;16.42;4.68;;;16.80;99.90;;;;;;4944791;29;20500;-62
2022/09/05 02:51:36;;;;;;;20.52;5.03;;;16.80;99.90;;;;;;4951791;28;20046;-62
2022/09/05 02:54:08;;;;;;;17.52;5.53;;;16.80;99.90;;;;;;4985525;28;20026;-62
2022/09/05 02:56:51;;;;;;;22.55;5.30;;;16.80;99.90;;;;;;4979375;28;20045;-62
2022/09/05 02:59:41;;;;;;;19.85;5.55;;;16.80;99.90;;;;;;4988167;28;20022;-63
2022/09/05 03:02:24;;;;;;;22.08;6.18;;;16.80;99.90;;;;;;4988598;28;20101;-61
2022/09/05 03:05:03;;;;;;;20.20;5.05;;;16.80;99.90;;;;;;4983134;28;20081;-62
2022/09/05 03:07:54;;;;;;;22.02;5.80;;;16.80;99.90;;;;;;4983461;28;20034;-61
2022/09/05 03:10:20;;;;;;;19.15;6.20;;;16.80;99.90;;;;;;4983516;28;20048;-61
2022/09/05 03:13:31;;;;;;;18.95;5.45;;;16.80;99.90;;;;;;4989474;28;20034;-63
2022/09/05 03:16:11;;;;;;;16.48;4.95;;;16.80;99.90;;;;;;4990169;28;20105;-62
2022/09/05 03:18:40;;;;;;;15.10;5.18;;;16.80;99.90;;;;;;4990002;28;20027;-61
2022/09/05 03:21:36;;;;;;;22.85;5.78;;;16.80;99.90;;;;;;4990315;28;20037;-61
2022/09/05 03:24:21;;;;;;;26.80;5.03;;;16.80;99.90;;;;;;4990094;28;20072;-61
2022/09/05 03:26:53;;;;;;;19.13;5.40;;;16.80;99.90;;;;;;4989695;28;20090;-60
2022/09/05 03:29:46;;;;;;;33.60;6.50;;;16.80;99.90;;;;;;4979797;28;20023;-60
2022/09/05 03:32:24;;;;;;;21.00;5.28;;;16.80;99.90;;;;;;4987313;28;20030;-60
2022/09/05 03:35:20;;;;;;;22.95;5.38;;;16.80;99.90;;;;;;4989512;28;20031;-61
2022/09/05 03:38:15;;;;;;;22.60;5.20;;;16.90;99.90;;;;;;4981408;28;20062;-61
2022/09/05 03:40:58;;;;;;;14.02;5.38;;;17.00;99.90;;;;;;4983208;28;20046;-61
2022/09/05 03:43:33;;;;;;;20.33;5.28;;;17.00;99.90;;;;;;5009656;23;20192;-59
2022/09/05 03:46:19;;;;;;;22.60;5.22;;;17.00;99.90;;;;;;5009470;28;20119;-59
2022/09/05 03:48:57;;;;;;;17.83;4.75;;;17.00;99.90;;;;;;5009166;28;20026;-59
2022/09/05 03:51:32;;;;;;;13.27;5.00;;;17.00;99.90;;;;;;4998779;28;20045;-59
2022/09/05 03:54:21;;;;;;;22.80;5.60;;;17.00;99.90;;;;;;5009194;28;20174;-59
2022/09/05 03:56:50;;;;;;;25.20;5.65;;;17.00;99.90;;;;;;5009194;28;20065;-59
2022/09/05 03:59:24;;;;;;;16.08;4.78;;;17.10;99.90;;;;;;5007442;28;20025;-59
2022/09/05 04:02:03;;;;;;;21.90;5.40;;;17.10;99.90;;;;;;5008655;28;20061;-59
2022/09/05 04:04:43;;;;;;;29.38;4.70;;;17.10;99.90;;;;;;4999499;28;20022;-59
2022/09/05 04:07:31;;;;;;;16.67;4.45;;;17.10;99.90;;;;;;5011098;28;20033;-58
2022/09/05 04:09:59;;;;;;;12.15;5.10;;;17.10;99.90;;;;;;5012945;28;20065;-59
2022/09/05 04:12:45;;;;;;;16.85;4.20;;;17.00;99.90;;;;;;5010423;28;20516;-59
2022/09/05 04:15:30;;;;;;;12.45;4.18;;;17.00;99.90;;;;;;5011269;28;20068;-59
2022/09/05 04:18:03;;;;;;;17.40;4.55;;;16.90;99.90;;;;;;5012399;28;20033;-59
2022/09/05 04:20:49;;;;;;;20.13;4.30;;;16.90;99.90;;;;;;5010691;28;20029;-59
2022/09/05 04:23:24;;;;;;;19.35;5.10;;;16.90;99.90;;;;;;5008364;28;20025;-59
2022/09/05 04:26:14;;;;;;;16.13;3.78;;;16.90;99.90;;;;;;5012396;28;20033;-58
2022/09/05 04:29:04;;;;;;;15.30;4.10;;;16.90;99.90;;;;;;5012250;28;20026;-59
2022/09/05 04:31:41;;;;;;;14.00;4.03;;;16.80;99.90;;;;;;5005830;28;20489;-58
2022/09/05 04:34:33;;;;;;;15.98;3.25;;;16.80;99.90;;;;;;5007272;28;20116;-58
2022/09/05 04:37:08;;;;;;;13.40;4.38;;;16.90;99.90;;;;;;5010835;28;20488;-58
2022/09/05 04:39:34;;;;;;;14.57;3.13;;;16.90;99.90;;;;;;5012233;28;20113;-60
2022/09/05 04:42:23;;;;;;;16.63;3.80;;;16.90;99.90;;;;;;5011268;28;20041;-58
2022/09/05 04:44:59;;;;;;;11.93;3.30;;;16.90;99.90;;;;;;5012268;28;20041;-60
2022/09/05 04:47:36;;;;;;;15.48;3.47;;;16.80;99.90;;;;;;5010372;28;20054;-60
2022/09/05 04:50:10;;;;;;;10.73;2.80;;;16.70;99.90;;;;;;5011837;28;20046;-60
2022/09/05 04:52:54;;;;;;;8.68;2.40;;;16.70;99.90;;;;;;4999400;28;20026;-60
2022/09/05 04:55:26;;;;;;;11.15;2.75;;;16.70;99.90;;;;;;5010173;28;20497;-59
2022/09/05 04:58:10;;;;;;;;;;;16.80;99.90;;;;;;5011866;28;20038;-59
2022/09/05 05:00:38;;;;;;;10.32;3.00;;;16.80;99.90;;;;;;5011204;28;19932;-59
2022/09/05 05:03:16;;;;;;;15.80;3.42;;;16.70;99.90;;;;;;5011564;28;20084;-59
2022/09/05 05:05:48;;;;;;;7.32;2.63;;;16.80;99.90;;;;;;5006680;28;20057;-59
2022/09/05 05:08:21;;;;;;;8.73;2.78;;;16.80;99.90;;;;;;5009816;28;20026;-58
2022/09/05 05:10:51;;;;;;;11.10;2.70;;;16.90;99.90;;;;;;5011159;28;20065;-59
2022/09/05 05:13:45;;;;;;;12.10;2.50;;;16.90;99.90;;;;;;5009578;28;20112;-59
2022/09/05 05:16:36;;;;;;;8.30;3.70;;;16.90;99.90;;;;;;5009067;28;20045;-59
2022/09/05 05:19:14;;;;;;;8.18;2.83;;;16.80;99.90;;;;;;5011426;28;20085;-59
2022/09/05 05:21:46;;;;;;;20.10;5.10;;;16.70;99.90;;;;;;5010093;28;20474;-59
2022/09/05 05:24:26;;;;;;;11.13;3.70;;;16.80;99.90;;;;;;5007568;28;20076;-59
2022/09/05 05:27:21;;;;;;;12.15;4.03;;;16.70;99.90;;;;;;5010677;28;20393;-59
2022/09/05 05:30:05;;;;;;;12.73;3.53;;;16.60;99.90;;;;;;5006416;28;20385;-59
2022/09/05 05:32:35;;;;;;;10.40;3.83;;;16.60;99.90;;;;;;5006734;28;20112;-59
2022/09/05 05:35:12;;;;;;;13.15;3.50;;;16.60;99.90;;;;;;5011060;28;20036;-59
2022/09/05 05:38:05;;;;;;;14.20;5.68;;;16.60;99.90;;;;;;5011021;28;20112;-58
2022/09/05 05:40:32;;;;;;;6.45;3.88;;;16.60;99.90;;;;;;5009796;28;20040;-58
2022/09/05 05:43:26;;;;;;;16.45;4.90;;;16.70;99.90;;;;;;5010060;28;20050;-59
2022/09/05 05:45:58;;;;;;;16.38;5.10;;;16.60;99.90;;;;;;5009328;28;20451;-59
2022/09/05 05:48:50;;;;;;;7.47;4.45;;;16.60;99.90;;;;;;5009033;28;20034;-59
2022/09/05 05:51:22;;;;;;;16.20;3.88;;;16.70;99.90;;;;;;5002601;28;20049;-59
2022/09/05 05:53:59;;;;;;;8.68;3.33;;;16.70;99.90;;;;;;5010877;28;20092;-59
2022/09/05 05:56:42;;;;;;;9.30;3.22;;;16.70;99.90;;;;;;4999847;28;20041;-58
2022/09/05 05:59:50;;;;;;;9.70;4.13;;;16.70;99.90;;;;;;5007385;28;20065;-59
2022/09/05 06:02:54;;;;;;;17.92;3.58;;;16.70;99.90;;;;;;4957999;28;20116;-59
2022/09/05 06:05:28;;;;;;;7.95;3.60;;;16.70;99.90;;;;;;4918538;29;20031;-58
2022/09/05 06:08:08;;;;;;;8.35;3.70;;;16.80;99.90;;;;;;4924278;29;20059;-59
2022/09/05 06:10:42;;;;;;;8.25;3.05;;;16.80;99.90;;;;;;4915883;29;20056;-59
2022/09/05 06:13:39;;;;;;;7.20;3.30;;;16.80;99.90;;;;;;4917881;29;20476;-59
2022/09/05 06:16:38;;;;;;;9.18;2.90;;;16.90;99.90;;;;;;4923417;29;20040;-59
2022/09/05 06:19:18;;;;;;;7.63;3.13;;;16.90;99.90;;;;;;4925683;29;20047;-59
2022/09/05 06:21:56;;;;;;;8.48;3.15;;;16.90;99.90;;;;;;4929218;29;20036;-60
2022/09/05 06:24:36;;;;;;;10.75;2.90;;;17.00;99.90;;;;;;4919329;29;20567;-60
2022/09/05 06:27:39;;;;;;;11.27;3.25;;;17.00;99.90;;;;;;4927207;29;20040;-60
2022/09/05 06:30:14;;;;;;;10.43;3.85;;;17.20;99.90;;;;;;4923682;29;20507;-60
2022/09/05 06:32:54;;;;;;;14.07;4.40;;;17.20;99.90;;;;;;4928552;29;20066;-59
2022/09/05 06:35:26;;;;;;;13.48;3.90;;;17.40;99.90;;;;;;4932451;28;20121;-60
2022/09/05 06:38:00;;;;;;;9.20;3.42;;;17.40;99.90;;;;;;4966217;28;20050;-60
2022/09/05 06:40:45;;;;;;;7.82;3.92;;;17.50;99.90;;;;;;5005289;28;20037;-60
2022/09/05 06:43:38;;;;;;;16.65;3.72;;;17.50;99.90;;;;;;5007189;28;20128;-60
2022/09/05 06:46:12;;;;;;;9.40;4.20;;;17.60;99.90;;;;;;5005970;28;20030;-60
2022/09/05 06:48:45;;;;;;;8.40;4.00;;;17.60;99.90;;;;;;5005245;28;20037;-60
2022/09/05 06:51:32;;;;;;;14.93;3.50;;;17.70;99.90;;;;;;5007796;28;20045;-60
2022/09/05 06:54:17;;;;;;;10.10;3.20;;;17.80;99.90;;;;;;5009662;28;20087;-61
2022/09/05 06:56:49;;;;;;;12.48;4.13;;;17.90;99.90;;;;;;4999765;28;20500;-60
2022/09/05 07:00:09;;;;;;;12.73;3.95;;;18.00;99.90;;;;;;5007431;28;20466;-59
2022/09/05 07:03:18;;;;;;;13.35;3.88;;;18.10;99.90;;;;;;4960832;28;20082;-60
2022/09/05 07:05:59;;;;;;;17.85;3.83;;;18.30;99.90;;;;;;4958109;28;20023;-61
2022/09/05 07:08:36;;;;;;;12.65;3.72;;;18.30;99.90;;;;;;4948034;28;20047;-60
2022/09/05 07:11:10;;;;;;;8.05;3.10;;;18.50;99.90;;;;;;4957128;28;20047;-59
2022/09/05 07:13:48;;;;;;;14.32;3.72;;;18.60;99.90;;;;;;4968184;28;20027;-60
2022/09/05 07:16:37;;;;;;;8.63;3.33;;;18.60;99.90;;;;;;4965999;28;20130;-62
2022/09/05 07:19:03;;;;;;;12.05;3.22;;;18.70;99.90;;;;;;4960098;28;20057;-60
2022/09/05 07:21:33;;;;;;;19.10;6.03;;;18.80;99.90;;;;;;4961454;28;20089;-60
2022/09/05 07:24:14;;;;;;;10.27;3.90;;;18.90;99.90;;;;;;4961272;28;20035;-59
2022/09/05 07:26:44;;;;;;;14.95;4.10;;;18.90;99.90;;;;;;4956203;28;20065;-60
2022/09/05 07:29:19;;;;;;;7.78;3.20;;;19.00;99.90;;;;;;4951054;28;20063;-59
2022/09/05 07:31:50;;;;;;;14.13;3.78;;;19.00;99.90;;;;;;4939586;28;20038;-59
2022/09/05 07:34:27;;;;;;;8.65;3.88;;;19.10;99.90;;;;;;4956668;28;20040;-59
2022/09/05 07:37:19;;;;;;;15.05;3.55;;;19.20;99.90;;;;;;4996279;28;20054;-60
2022/09/05 07:39:59;;;;;;;12.60;3.53;;;19.20;99.90;;;;;;4998213;28;20038;-59
2022/09/05 07:42:28;;;;;;;10.85;3.35;;;19.20;99.90;;;;;;5002541;28;20077;-59
2022/09/05 07:44:59;;;;;;;10.43;3.40;;;19.30;99.90;;;;;;5012985;28;20041;-60
2022/09/05 07:47:29;;;;;;;9.32;3.50;;;19.50;99.90;;;;;;5001006;28;20034;-59
2022/09/05 07:50:00;;;;;;;7.55;3.38;;;19.50;99.90;;;;;;5013082;28;20040;-59
2022/09/05 07:52:26;;;;;;;10.35;3.35;;;19.60;99.90;;;;;;5010427;28;20477;-59
2022/09/05 07:54:57;;;;;;;11.75;4.50;;;19.70;99.90;;;;;;5012420;28;20104;-59
2022/09/05 07:57:31;;;;;;;9.30;3.58;;;19.70;99.90;;;;;;5010499;28;20076;-59
2022/09/05 08:00:10;;;;;;;12.85;3.22;;;19.90;99.90;;;;;;5014329;28;20033;-59
2022/09/05 08:02:44;;;;;;;9.30;4.13;;;19.90;99.90;;;;;;5011150;28;20026;-60
2022/09/05 08:05:14;;;;;;;14.82;3.55;;;20.00;99.90;;;;;;5003496;28;20026;-60
2022/09/05 08:07:43;;;;;;;11.40;3.00;;;20.00;99.90;;;;;;5012332;28;20159;-60
2022/09/05 08:10:19;;;;;;;10.23;3.60;;;20.10;99.90;;;;;;5011952;28;20029;-59
2022/09/05 08:13:08;;;;;;;8.65;3.50;;;20.30;99.90;;;;;;5020423;28;20169;-59
2022/09/05 08:15:36;;;;;;;13.15;3.75;;;20.40;99.90;;;;;;5002931;28;20041;-59
2022/09/05 08:18:10;;;;;;;7.07;3.22;;;20.50;99.90;;;;;;5021263;28;20037;-60
2022/09/05 08:20:56;;;;;;;8.43;2.53;;;20.50;99.90;;;;;;5020655;28;20087;-60
2022/09/05 08:23:33;;;;;;;11.30;2.65;;;20.60;99.90;;;;;;5011515;28;20493;-58
2022/09/05 08:26:07;;;;;;;5.20;2.42;;;20.70;99.90;;;;;;5022439;28;20038;-60
2022/09/05 08:28:52;;;;;;;7.25;2.53;;;20.80;99.90;;;;;;5013021;28;20478;-61
2022/09/05 08:31:47;;;;;;;7.13;2.20;;;20.80;99.90;;;;;;5009731;28;20429;-60
2022/09/05 08:34:20;;;;;;;8.00;2.10;;;20.80;99.90;;;;;;5008980;28;20033;-60
2022/09/05 08:36:48;;;;;;;8.38;2.40;;;20.80;99.90;;;;;;5014599;28;20033;-60
2022/09/05 08:39:20;;;;;;;7.72;2.25;;;20.80;99.90;;;;;;5013510;28;20099;-61
2022/09/05 08:42:07;;;;;;;3.50;1.90;;;20.80;99.90;;;;;;5013054;28;20100;-60
2022/09/05 08:44:39;;;;;;;9.15;2.25;;;20.80;99.90;;;;;;5020414;28;20039;-60
2022/09/05 08:47:24;;;;;;;9.00;2.88;;;20.80;99.90;;;;;;5019496;28;20489;-59
2022/09/05 08:50:22;;;;;;;8.75;2.08;;;20.70;99.90;;;;;;5013131;28;20030;-61
2022/09/05 08:52:50;;;;;;;17.48;3.10;;;20.80;99.90;;;;;;5004671;28;20041;-60
2022/09/05 08:55:27;;;;;;;11.27;2.05;;;20.70;99.90;;;;;;5014767;28;20413;-59
2022/09/05 08:58:13;;;;;;;8.10;2.45;;;20.60;99.90;;;;;;5010038;28;20034;-59
2022/09/05 09:00:50;;;;;;;6.53;2.60;;;20.70;99.90;;;;;;5015812;28;20030;-60
2022/09/05 09:03:41;;;;;;;8.23;1.80;;;20.80;99.90;;;;;;5011522;28;20513;-59
2022/09/05 09:07:02;;;;;;;5.97;2.00;;;20.80;99.90;;;;;;5015613;28;20034;-60
2022/09/05 09:09:52;;;;;;;9.30;2.58;;;20.80;99.90;;;;;;4933215;29;20071;-60
2022/09/05 09:12:30;;;;;;;5.95;2.40;;;21.10;99.90;;;;;;4925410;29;20645;-60
2022/09/05 09:15:36;;;;;;;6.53;2.83;;;21.10;99.90;;;;;;4914855;29;20061;-61
2022/09/05 09:18:14;;;;;;;6.30;2.38;;;21.20;99.90;;;;;;4931688;29;20110;-60
2022/09/05 09:20:50;;;;;;;6.13;3.70;;;21.20;99.90;;;;;;4937746;29;20039;-59
2022/09/05 09:23:43;;;;;;;9.70;2.60;;;21.20;99.90;;;;;;4929656;29;20126;-59
2022/09/05 09:26:22;;;;;;;8.73;2.65;;;21.10;99.90;;;;;;4928614;29;20122;-58
2022/09/05 09:29:07;;;;;;;11.65;2.78;;;21.40;99.90;;;;;;4931025;29;20272;-60
2022/09/05 09:31:41;;;;;;;4.25;2.45;;;21.60;99.90;;;;;;4930589;29;20055;-60
2022/09/05 09:34:24;;;;;;;5.32;2.38;;;21.70;99.90;;;;;;4932239;29;20028;-60
2022/09/05 09:36:49;;;;;;;6.18;2.35;;;21.60;99.90;;;;;;4939193;29;20028;-60
2022/09/05 09:39:15;;;;;;;11.50;2.42;;;21.80;99.90;;;;;;4933936;29;20058;-60
2022/09/05 09:41:55;;;;;;;6.05;1.80;;;21.70;99.90;;;;;;4931710;29;20039;-59
2022/09/05 09:44:47;;;;;;;4.55;1.80;;;21.70;99.90;;;;;;4984480;28;20049;-60
2022/09/05 09:47:16;;;;;;;;;;;21.70;99.90;;;;;;4992705;28;20040;-60
2022/09/05 09:49:59;;;;;;;6.07;2.00;;;21.70;99.90;;;;;;4997660;28;19914;-60
2022/09/05 09:52:55;;;;;;;2.47;1.60;;;21.70;99.90;;;;;;4989024;28;20041;-60
2022/09/05 09:55:48;;;;;;;5.32;1.83;;;21.70;99.90;;;;;;4991688;28;20113;-60
2022/09/05 09:58:39;;;;;;;5.30;1.95;;;21.70;99.90;;;;;;4992119;28;20025;-60
2022/09/05 10:01:30;;;;;;;6.05;1.80;;;21.80;99.90;;;;;;4991614;28;20035;-60
2022/09/05 10:04:16;;;;;;;6.20;1.38;;;22.00;99.90;;;;;;4987601;28;20537;-59
2022/09/05 10:06:51;;;;;;;6.22;1.80;;;22.20;99.90;;;;;;4985190;28;20030;-60
2022/09/05 10:09:19;;;;;;;5.60;1.40;;;22.20;99.90;;;;;;4992286;28;20037;-60
2022/09/05 10:12:19;;;;;;;6.68;1.90;;;22.30;99.90;;;;;;4990809;28;20050;-59
2022/09/05 10:15:06;;;;;;;4.47;1.58;;;22.40;99.90;;;;;;4993101;28;20109;-59
2022/09/05 10:17:44;;;;;;;3.97;1.95;;;22.50;99.90;;;;;;4991077;28;20070;-60
2022/09/05 10:20:48;;;;;;;5.07;1.58;;;22.40;99.90;;;;;;4996745;28;20032;-59
2022/09/05 10:23:52;;;;;;;6.45;1.70;;;22.50;99.90;;;;;;4991549;28;20030;-59
2022/09/05 10:26:51;;;;;;;12.15;2.20;;;22.70;99.90;;;;;;4990067;28;20034;-60
2022/09/05 10:29:35;;;;;;;7.15;2.10;;;23.00;99.90;;;;;;5001336;28;20477;-59
2022/09/05 10:32:30;;;;;;;6.53;1.73;;;23.10;99.90;;;;;;5002036;28;20526;-59
2022/09/05 10:35:01;;;;;;;7.43;1.38;;;23.20;99.90;;;;;;4986920;28;20370;-59
2022/09/05 10:37:42;;;;;;;4.63;1.30;;;23.20;99.90;;;;;;4991694;28;20093;-60
2022/09/05 10:40:15;;;;;;;6.70;1.67;;;22.90;99.90;;;;;;4996269;28;20104;-60
2022/09/05 10:42:53;;;;;;;2.92;1.17;;;23.00;99.90;;;;;;4997251;28;20072;-59
2022/09/05 10:45:28;;;;;;;3.88;1.20;;;23.10;99.90;;;;;;5018045;28;20475;-59
2022/09/05 10:48:11;;;;;;;3.85;1.30;;;23.20;99.90;;;;;;5017472;28;20041;-60
2022/09/05 10:50:43;;;;;;;5.90;1.98;;;22.90;99.90;;;;;;5018429;28;20120;-59
2022/09/05 10:53:27;;;;;;;4.60;1.30;;;23.00;99.90;;;;;;5001422;28;20038;-60
2022/09/05 10:56:08;;;;;;;5.80;1.60;;;22.90;99.90;;;;;;5022394;28;20097;-60
2022/09/05 10:59:00;;;;;;;4.80;1.88;;;22.70;99.90;;;;;;5006460;28;20423;-63
2022/09/05 11:01:40;;;;;;;5.43;1.67;;;22.70;99.90;;;;;;5008209;28;20116;-60
2022/09/05 11:04:21;;;;;;;4.72;1.55;;;22.80;99.90;;;;;;5012293;28;20030;-60
2022/09/05 11:07:25;;;;;;;5.50;1.55;;;23.10;99.90;;;;;;5024025;28;20032;-60
2022/09/05 11:10:04;;;;;;;5.95;1.40;;;23.20;99.90;;;;;;5019276;28;20071;-59
2022/09/05 11:12:46;;;;;;;2.08;1.17;;;23.40;99.90;;;;;;5006214;28;20038;-59
2022/09/05 11:15:46;;;;;;;9.02;2.25;;;23.70;99.90;;;;;;5012884;28;20018;-60
2022/09/05 11:18:28;;;;;;;4.05;1.45;;;23.80;99.90;;;;;;5019549;28;20074;-61
2022/09/05 11:21:18;;;;;;;2.72;1.27;;;24.00;99.90;;;;;;5028031;28;20041;-59
2022/09/05 11:23:51;;;;;;;7.95;1.95;;;23.70;99.90;;;;;;5014340;28;20030;-60
2022/09/05 11:26:32;;;;;;;7.50;1.80;;;23.70;99.90;;;;;;5008725;28;20040;-60
2022/09/05 11:29:08;;;;;;;6.57;1.60;;;23.30;99.90;;;;;;5018384;28;20112;-60
2022/09/05 11:31:41;;;;;;;4.90;1.73;;;22.90;99.90;;;;;;5020247;28;20069;-60
2022/09/05 11:34:09;;;;;;;2.10;1.20;;;22.60;99.90;;;;;;5016513;28;20075;-60
2022/09/05 11:36:45;;;;;;;6.38;1.77;;;22.40;99.90;;;;;;5023631;28;20052;-60
2022/09/05 11:39:15;;;;;;;6.95;2.03;;;22.40;99.90;;;;;;5014107;28;20018;-60
2022/09/05 11:42:01;;;;;;;5.65;1.70;;;22.40;99.90;;;;;;5013378;28;20026;-60
2022/09/05 11:44:46;;;;;;;10.68;1.60;;;22.80;99.90;;;;;;5010003;28;20034;-59
2022/09/05 11:47:45;;;;;;;2.58;1.20;;;23.30;99.90;;;;;;5014229;28;20076;-60
2022/09/05 11:50:29;;;;;;;8.23;1.70;;;23.40;99.90;;;;;;5019866;28;20034;-59
2022/09/05 11:53:07;;;;;;;5.88;1.60;;;23.60;99.90;;;;;;5009363;28;20026;-60
2022/09/05 11:55:57;;;;;;;5.15;1.63;;;23.80;99.90;;;;;;5022146;28;20033;-60
2022/09/05 11:58:55;;;;;;;4.03;1.48;;;24.10;99.90;;;;;;5013557;28;20420;-59
2022/09/05 12:01:24;;;;;;;6.45;1.55;;;24.10;99.90;;;;;;5010280;28;20038;-60
2022/09/05 12:04:21;;;;;;;4.38;1.42;;;24.20;99.90;;;;;;5014092;28;20029;-61
2022/09/05 12:07:24;;;;;;;3.35;1.35;;;24.50;99.90;;;;;;5021210;28;20112;-59
2022/09/05 12:10:21;;;;;;;5.00;1.63;;;24.80;99.90;;;;;;5016244;28;20532;-60
2022/09/05 12:13:17;;;;;;;2.85;1.27;;;24.60;99.90;;;;;;5010596;28;20079;-59
2022/09/05 12:15:46;;;;;;;6.80;1.80;;;24.30;99.90;;;;;;5006081;28;20034;-59
2022/09/05 12:18:24;;;;;;;7.25;1.80;;;24.70;99.90;;;;;;5000468;28;20537;-60
2022/09/05 12:21:05;;;;;;;2.28;1.40;;;24.90;99.90;;;;;;5010288;28;20187;-60
2022/09/05 12:23:36;;;;;;;7.43;1.80;;;24.80;99.90;;;;;;5013242;28;20022;-60
2022/09/05 12:26:18;;;;;;;8.02;2.28;;;24.90;99.90;;;;;;5002803;28;20449;-59
2022/09/05 12:28:58;;;;;;;3.78;1.60;;;25.30;99.90;;;;;;5001262;28;20508;-58
2022/09/05 12:31:37;;;;;;;6.13;1.42;;;25.90;99.90;;;;;;5008826;28;20161;-60
2022/09/05 12:34:17;;;;;;;7.47;2.03;;;25.90;99.90;;;;;;5008957;28;20029;-60
2022/09/05 12:36:48;;;;;;;6.05;1.40;;;25.50;99.90;;;;;;5006078;28;20060;-60
2022/09/05 12:39:35;;;;;;;3.67;1.17;;;26.10;99.90;;;;;;4999659;28;20030;-60
2022/09/05 12:42:15;;;;;;;4.03;1.00;;;26.60;99.90;;;;;;5007040;28;20037;-59
2022/09/05 12:44:49;;;;;;;4.68;1.60;;;27.20;99.90;;;;;;5008276;28;20118;-58
2022/09/05 12:47:22;;;;;;;8.77;1.38;;;28.20;99.90;;;;;;4999981;28;20026;-59
2022/09/05 12:50:01;;;;;;;5.13;1.05;;;28.20;99.90;;;;;;5004797;28;20057;-60
2022/09/05 12:52:41;;;;;;;11.57;1.08;;;28.10;99.90;;;;;;5001341;28;20397;-59
2022/09/05 12:55:09;;;;;;;3.25;0.85;;;27.50;99.90;;;;;;5009938;28;20033;-59
2022/09/05 12:57:41;;;;;;;4.72;1.27;;;27.90;99.90;;;;;;5001709;28;20030;-59
2022/09/05 13:00:20;;;;;;;;;;;28.00;99.90;;;;;;5007810;28;20026;-59
2022/09/05 13:02:56;;;;;;;4.45;1.40;;;29.00;99.90;;;;;;5005345;28;19925;-59
2022/09/05 13:06:00;;;;;;;6.38;1.38;;;30.10;99.20;;;;;;5006033;28;20029;-59
2022/09/05 13:08:38;;;;;;;6.03;1.73;;;30.50;97.70;;;;;;4977871;28;20130;-59
2022/09/05 13:11:08;;;;;;;4.50;1.48;;;30.00;98.40;;;;;;4988886;28;20120;-59
2022/09/05 13:13:53;;;;;;;9.68;1.40;;;29.80;97.90;;;;;;4974383;28;20030;-59
2022/09/05 13:16:25;;;;;;;9.38;1.50;;;29.20;99.80;;;;;;4981724;28;20117;-59
2022/09/05 13:19:06;;;;;;;5.70;1.08;;;28.70;99.50;;;;;;4980457;28;20086;-58
2022/09/05 13:21:36;;;;;;;5.20;2.85;;;28.50;99.30;;;;;;4988729;28;20034;-60
2022/09/05 13:24:16;;;;;;;3.03;1.67;;;29.20;98.70;;;;;;4981522;28;20046;-59
2022/09/05 13:26:55;;;;;;;3.63;1.00;;;29.40;97.60;;;;;;4976196;28;20515;-58
2022/09/05 13:29:28;;;;;;;3.25;1.13;;;29.10;97.80;;;;;;4979123;28;20045;-60
2022/09/05 13:31:57;;;;;;;3.30;1.27;;;28.60;98.10;;;;;;4986606;28;20044;-59
2022/09/05 13:34:42;;;;;;;3.13;1.13;;;28.30;99.00;;;;;;4986486;28;20041;-59
2022/09/05 13:37:18;;;;;;;4.78;1.40;;;28.00;99.40;;;;;;4982293;28;20502;-59
2022/09/05 13:40:21;;;;;;;3.63;1.58;;;27.60;99.90;;;;;;4982432;28;20531;-61
2022/09/05 13:43:14;;;;;;;9.27;4.55;;;27.80;99.90;;;;;;4992920;28;20081;-60
2022/09/05 13:46:02;;;;;;;4.80;2.42;;;28.60;99.00;;;;;;5005093;28;20045;-59
2022/09/05 13:48:55;;;;;;;4.95;1.55;;;30.10;97.00;;;;;;5007244;28;20039;-60
2022/09/05 13:51:36;;;;;;;3.15;1.13;;;31.20;94.00;;;;;;5005677;28;20038;-60
2022/09/05 13:54:35;;;;;;;2.53;1.05;;;31.80;88.40;;;;;;5007089;28;20021;-60
2022/09/05 13:57:15;;;;;;;1.67;1.15;;;32.40;83.60;;;;;;5006078;28;20134;-61
2022/09/05 14:00:05;;;;;;;7.50;2.10;;;32.70;81.10;;;;;;5015908;28;20025;-61
2022/09/05 14:03:08;;;;;;;4.07;1.10;;;32.00;81.80;;;;;;5002477;28;20159;-60